Time;durP1;ratioP1;P1;durP2;ratioP2;P2;SDS_P1;SDS_P2;PMS_P1;PMS_P2;Temp;Humidity;BMP_temperature;BMP_pressure;BME280_temperature;BME280_humidity;BME280_pressure;Samples;Min_cycle;Max_cycle;Signal;HPM_P1;HPM_P2
2023/02/20 00:01:04;;;;;;;2.28;1.85;;;6.90;99.90;;;;;;4929213;29;20054;-74
2023/02/20 00:03:32;;;;;;;3.13;1.27;;;6.90;99.90;;;;;;4924523;28;20475;-75
2023/02/20 00:06:00;;;;;;;2.95;1.45;;;6.80;99.90;;;;;;4931633;29;20416;-74
2023/02/20 00:08:28;;;;;;;2.53;1.85;;;6.80;99.90;;;;;;4945885;29;20059;-74
2023/02/20 00:10:55;;;;;;;1.75;1.65;;;6.90;99.90;;;;;;4952575;28;20059;-74
2023/02/20 00:13:23;;;;;;;1.60;1.50;;;6.80;99.90;;;;;;4916985;29;20043;-74
2023/02/20 00:15:50;;;;;;;1.60;1.50;;;6.80;99.90;;;;;;4945724;28;20433;-74
2023/02/20 00:18:18;;;;;;;1.90;1.80;;;6.90;99.90;;;;;;4935189;29;20772;-74
2023/02/20 00:20:52;;;;;;;1.30;1.20;;;6.90;99.90;;;;;;4934316;29;20051;-74
2023/02/20 00:23:20;;;;;;;3.25;1.50;;;6.90;99.90;;;;;;4920022;29;20059;-74
2023/02/20 00:25:48;;;;;;;3.42;1.92;;;6.90;99.90;;;;;;4927332;28;20066;-74
2023/02/20 00:28:18;;;;;;;4.25;2.28;;;6.80;99.90;;;;;;4934938;29;20059;-74
2023/02/20 00:30:46;;;;;;;3.15;1.63;;;6.80;99.90;;;;;;4931078;29;20047;-74
2023/02/20 00:33:16;;;;;;;5.40;1.95;;;6.80;99.90;;;;;;4945168;28;20057;-74
2023/02/20 00:35:43;;;;;;;2.17;1.67;;;6.90;99.90;;;;;;4947177;29;20047;-74
2023/02/20 00:38:11;;;;;;;2.30;1.42;;;6.90;99.90;;;;;;4951455;28;20047;-74
2023/02/20 00:40:39;;;;;;;2.35;2.15;;;6.90;99.90;;;;;;4947552;28;20047;-74
2023/02/20 00:43:06;;;;;;;1.15;1.15;;;6.80;99.90;;;;;;4930156;29;20518;-74
2023/02/20 00:45:34;;;;;;;2.20;2.10;;;6.70;99.90;;;;;;4928925;29;20415;-74
2023/02/20 00:48:02;;;;;;;2.80;1.98;;;6.80;99.90;;;;;;4935228;29;20340;-74
2023/02/20 00:50:30;;;;;;;2.25;2.15;;;6.80;99.90;;;;;;4947365;28;20058;-74
2023/02/20 00:52:58;;;;;;;2.40;2.03;;;6.70;99.90;;;;;;4949417;28;20038;-74
2023/02/20 00:55:25;;;;;;;2.10;1.95;;;6.70;99.90;;;;;;4913083;29;20086;-74
2023/02/20 00:57:54;;;;;;;2.72;1.75;;;6.70;99.90;;;;;;4946169;28;20156;-74
2023/02/20 01:00:26;;;;;;;1.83;1.48;;;6.80;99.90;;;;;;4949124;29;20051;-74
2023/02/20 01:02:54;;;;;;;2.65;1.88;;;6.70;99.90;;;;;;4946415;29;20055;-74
2023/02/20 01:05:23;;;;;;;1.80;1.63;;;6.70;99.90;;;;;;4947648;28;20047;-75
2023/02/20 01:07:53;;;;;;;1.70;1.60;;;6.80;99.90;;;;;;4934619;29;20067;-74
2023/02/20 01:10:22;;;;;;;1.98;1.85;;;6.80;99.90;;;;;;4950417;28;20271;-74
2023/02/20 01:12:50;;;;;;;5.57;2.15;;;6.80;99.90;;;;;;4952463;28;20054;-74
2023/02/20 01:15:18;;;;;;;3.00;1.98;;;6.80;99.90;;;;;;4950054;29;20051;-74
2023/02/20 01:17:47;;;;;;;3.20;1.50;;;6.80;99.90;;;;;;4953725;29;20046;-74
2023/02/20 01:20:16;;;;;;;2.42;2.33;;;6.80;99.90;;;;;;4954672;29;20070;-74
2023/02/20 01:22:44;;;;;;;2.78;1.70;;;6.80;99.90;;;;;;4921710;29;20043;-74
2023/02/20 01:25:11;;;;;;;4.95;2.60;;;6.80;99.90;;;;;;4954005;29;20042;-74
2023/02/20 01:27:39;;;;;;;3.33;1.90;;;6.70;99.90;;;;;;4943987;29;20064;-74
2023/02/20 01:30:08;;;;;;;3.95;1.92;;;6.70;99.90;;;;;;4934993;29;20050;-75
2023/02/20 01:32:36;;;;;;;2.15;1.95;;;6.80;99.90;;;;;;4934634;29;20063;-75
2023/02/20 01:35:05;;;;;;;2.00;1.90;;;6.70;99.90;;;;;;4950137;29;20055;-75
2023/02/20 01:37:35;;;;;;;2.25;2.05;;;6.70;99.90;;;;;;4954385;28;20427;-74
2023/02/20 01:40:04;;;;;;;1.80;1.70;;;6.70;99.90;;;;;;4958414;29;20063;-74
2023/02/20 01:42:33;;;;;;;1.48;1.38;;;6.70;99.90;;;;;;4958251;29;20039;-74
2023/02/20 01:45:32;;;;;;;3.30;2.83;;;6.70;99.90;;;;;;4940795;29;20035;-74
2023/02/20 01:48:00;;;;;;;1.67;1.58;;;6.70;99.90;;;;;;4950292;29;20070;-74
2023/02/20 01:51:08;;;;;;;12.40;3.70;;;6.70;99.90;;;;;;4941134;29;20369;-74
2023/02/20 01:53:37;;;;;;;1.55;1.45;;;6.60;99.90;;;;;;4924944;29;20411;-74
2023/02/20 01:56:09;;;;;;;2.05;1.85;;;6.60;99.90;;;;;;4957498;29;20055;-74
2023/02/20 01:58:45;;;;;;;2.85;1.40;;;6.60;99.90;;;;;;4940349;29;20389;-74
2023/02/20 02:01:13;;;;;;;3.53;2.08;;;6.60;99.90;;;;;;4941738;29;20432;-90
2023/02/20 02:03:45;;;;;;;1.80;1.70;;;6.70;99.90;;;;;;4962150;28;20054;-89
2023/02/20 02:06:16;;;;;;;4.32;2.28;;;6.60;99.90;;;;;;4977003;28;20419;-88
2023/02/20 02:08:45;;;;;;;4.40;1.80;;;6.70;99.90;;;;;;4957664;28;20054;-88
2023/02/20 02:11:16;;;;;;;1.17;1.08;;;6.70;99.90;;;;;;4967413;28;20054;-87
2023/02/20 02:13:44;;;;;;;1.85;1.75;;;6.70;99.90;;;;;;4964845;28;20046;-87
2023/02/20 02:16:24;;;;;;;4.55;2.10;;;6.70;99.90;;;;;;4977974;28;20039;-90
2023/02/20 02:19:00;;;;;;;2.47;2.28;;;6.70;99.90;;;;;;4976495;28;20039;-89
2023/02/20 02:21:49;;;;;;;5.00;2.45;;;6.70;99.90;;;;;;4958365;28;20031;-89
2023/02/20 02:24:49;;;;;;;4.55;3.17;;;6.70;99.90;;;;;;4965755;28;20342;-88
2023/02/20 02:27:36;;;;;;;3.08;1.88;;;6.60;99.90;;;;;;4921273;28;20045;-88
2023/02/20 02:30:23;;;;;;;2.17;1.88;;;6.50;99.90;;;;;;4966593;28;20035;-89
2023/02/20 02:32:59;;;;;;;1.90;1.70;;;6.60;99.90;;;;;;4959347;28;20031;-88
2023/02/20 02:35:39;;;;;;;3.00;1.77;;;6.60;99.90;;;;;;4976398;28;20059;-89
2023/02/20 02:38:12;;;;;;;1.73;1.52;;;6.50;99.90;;;;;;4953632;28;20047;-89
2023/02/20 02:41:02;;;;;;;2.72;2.22;;;6.50;99.90;;;;;;4974832;28;20051;-88
2023/02/20 02:43:54;;;;;;;6.35;2.17;;;6.50;99.90;;;;;;4972033;28;20282;-89
2023/02/20 02:46:55;;;;;;;2.42;2.13;;;6.50;99.90;;;;;;4975220;28;20043;-89
2023/02/20 02:50:04;;;;;;;3.55;2.75;;;6.50;99.90;;;;;;4979966;28;20048;-89
2023/02/20 02:52:47;;;;;;;4.15;2.22;;;6.50;99.90;;;;;;4960959;28;20053;-88
2023/02/20 02:55:18;;;;;;;4.20;2.00;;;6.50;99.90;;;;;;4976288;28;20039;-90
2023/02/20 02:57:46;;;;;;;4.03;2.20;;;6.50;99.90;;;;;;4953426;28;20039;-90
2023/02/20 03:00:21;;;;;;;1.75;1.65;;;6.60;99.90;;;;;;4959990;28;20041;-88
2023/02/20 03:03:03;;;;;;;2.22;2.03;;;6.60;99.90;;;;;;4954483;28;20051;-89
2023/02/20 03:05:39;;;;;;;3.38;2.20;;;6.50;99.90;;;;;;4949293;28;20058;-88
2023/02/20 03:08:21;;;;;;;3.35;2.50;;;6.50;99.90;;;;;;4946613;28;20232;-90
2023/02/20 03:10:52;;;;;;;2.30;2.03;;;6.40;99.90;;;;;;4917362;29;20460;-90
2023/02/20 03:16:16;;;;;;;6.55;2.67;;;6.50;99.90;;;;;;4955463;28;20063;-89
2023/02/20 03:18:45;;;;;;;5.05;1.98;;;6.50;99.90;;;;;;4926569;29;20047;-90
2023/02/20 03:21:19;;;;;;;2.80;2.30;;;6.50;99.90;;;;;;4921268;29;20051;-89
2023/02/20 03:23:56;;;;;;;4.03;2.50;;;6.50;99.90;;;;;;4946929;29;20432;-75
2023/02/20 03:26:30;;;;;;;1.90;1.77;;;6.50;99.90;;;;;;4952708;28;20540;-75
2023/02/20 03:29:04;;;;;;;3.85;2.13;;;6.50;99.90;;;;;;4939491;29;20401;-75
2023/02/20 03:31:34;;;;;;;8.40;4.82;;;6.50;99.90;;;;;;4954061;28;20495;-75
2023/02/20 03:45:40;;;;;;;2.10;1.95;;;6.50;99.90;;;;;;4934634;28;20496;-75
2023/02/20 03:48:15;;;;;;;2.72;2.00;;;6.40;99.90;;;;;;4933276;29;20062;-75
2023/02/20 03:50:44;;;;;;;3.70;3.40;;;6.40;99.90;;;;;;4930552;29;20424;-75
2023/02/20 03:53:12;;;;;;;2.15;2.03;;;6.30;99.90;;;;;;4920764;29;20062;-75
2023/02/20 03:55:40;;;;;;;14.02;2.95;;;6.40;99.90;;;;;;4921128;29;20504;-75
2023/02/20 03:58:14;;;;;;;2.70;2.50;;;6.40;99.90;;;;;;4922157;29;20552;-75
2023/02/20 04:00:46;;;;;;;2.83;2.55;;;6.30;99.90;;;;;;4938983;28;20508;-75
2023/02/20 04:03:20;;;;;;;7.43;2.80;;;6.30;99.90;;;;;;4926791;29;20074;-75
2023/02/20 04:05:54;;;;;;;5.72;2.40;;;6.30;99.90;;;;;;4933408;28;20432;-75
2023/02/20 04:08:35;;;;;;;7.40;1.92;;;6.40;99.90;;;;;;4935392;29;20058;-75
2023/02/20 04:11:24;;;;;;;13.02;3.40;;;6.30;99.90;;;;;;4930927;28;20066;-75
2023/02/20 04:13:53;;;;;;;2.00;1.90;;;6.40;99.90;;;;;;4936364;28;20051;-75
2023/02/20 04:16:22;;;;;;;2.40;2.20;;;6.30;99.90;;;;;;4931386;29;20562;-75
2023/02/20 04:18:50;;;;;;;2.55;2.35;;;6.30;99.90;;;;;;4948099;29;20407;-75
2023/02/20 04:21:31;;;;;;;2.60;2.40;;;6.20;99.90;;;;;;4942550;29;20249;-75
2023/02/20 04:24:10;;;;;;;3.60;2.20;;;6.20;99.90;;;;;;4934844;29;20208;-75
2023/02/20 04:26:38;;;;;;;4.20;2.20;;;6.10;99.90;;;;;;4947171;28;20054;-75
2023/02/20 04:29:06;;;;;;;2.65;2.40;;;5.90;99.90;;;;;;4946331;29;20531;-75
2023/02/20 04:31:34;;;;;;;8.50;3.97;;;6.00;99.90;;;;;;4938449;29;20519;-75
2023/02/20 04:34:02;;;;;;;2.58;2.33;;;5.90;99.90;;;;;;4913547;29;20507;-75
2023/02/20 04:36:29;;;;;;;4.47;2.15;;;5.70;99.90;;;;;;4928752;29;20059;-76
2023/02/20 04:38:59;;;;;;;1.85;1.75;;;5.80;99.90;;;;;;4924944;29;20055;-75
2023/02/20 04:41:31;;;;;;;2.40;2.20;;;5.80;99.90;;;;;;4928209;29;20059;-75
2023/02/20 04:47:00;;;;;;;8.98;3.08;;;5.80;99.90;;;;;;4908065;29;20052;-75
2023/02/20 04:49:29;;;;;;;2.75;2.13;;;5.50;99.90;;;;;;4928432;29;20051;-75
2023/02/20 04:51:59;;;;;;;2.33;2.10;;;5.60;99.90;;;;;;4930936;29;20059;-75
2023/02/20 04:54:27;;;;;;;2.85;2.15;;;5.50;99.90;;;;;;4922653;29;20047;-75
2023/02/20 04:56:56;;;;;;;2.03;1.65;;;5.40;99.90;;;;;;4936417;28;20043;-75
2023/02/20 04:59:24;;;;;;;1.80;1.70;;;5.50;99.90;;;;;;4927742;29;20071;-75
2023/02/20 05:01:53;;;;;;;2.35;2.15;;;5.30;99.90;;;;;;4933212;29;20428;-75
2023/02/20 05:04:21;;;;;;;10.65;2.63;;;5.40;99.90;;;;;;4938235;28;20059;-75
2023/02/20 05:06:52;;;;;;;1.88;1.63;;;5.30;99.90;;;;;;4947046;28;20420;-75
2023/02/20 05:09:21;;;;;;;1.65;1.55;;;5.20;99.90;;;;;;4932083;29;20040;-75
2023/02/20 05:11:49;;;;;;;6.95;2.78;;;5.20;99.90;;;;;;4947428;29;20761;-75
2023/02/20 05:14:17;;;;;;;2.83;2.53;;;5.30;99.90;;;;;;4938686;28;20479;-75
2023/02/20 05:16:45;;;;;;;3.00;1.60;;;5.30;99.90;;;;;;4953613;28;20264;-75
2023/02/20 05:19:13;;;;;;;5.07;3.25;;;5.30;99.90;;;;;;4952546;28;20065;-75
2023/02/20 05:24:30;;;;;;;2.55;1.90;;;5.30;99.90;;;;;;4945863;29;20304;-75
2023/02/20 05:26:59;;;;;;;3.42;2.60;;;5.30;99.90;;;;;;4950724;28;20055;-75
2023/02/20 05:29:26;;;;;;;5.00;2.38;;;5.10;99.90;;;;;;4958333;28;20054;-75
2023/02/20 05:31:54;;;;;;;8.63;2.13;;;5.10;99.90;;;;;;4958479;28;20851;-75
2023/02/20 05:34:24;;;;;;;2.13;1.98;;;5.10;99.90;;;;;;4952793;28;20072;-76
2023/02/20 05:36:53;;;;;;;3.58;3.17;;;5.10;99.90;;;;;;4956973;28;20050;-75
2023/02/20 05:39:21;;;;;;;2.78;2.58;;;5.10;99.90;;;;;;4952868;29;20055;-75
2023/02/20 05:41:48;;;;;;;2.60;2.40;;;5.10;99.90;;;;;;4935620;28;20053;-75
2023/02/20 05:44:16;;;;;;;2.97;2.22;;;5.00;99.90;;;;;;4941651;28;20058;-75
2023/02/20 05:46:44;;;;;;;3.90;2.40;;;5.00;99.90;;;;;;4941748;28;20659;-75
2023/02/20 05:49:11;;;;;;;5.90;3.22;;;5.00;99.90;;;;;;4941036;29;20403;-75
2023/02/20 05:51:39;;;;;;;2.55;1.98;;;5.00;99.90;;;;;;4953043;28;20063;-75
2023/02/20 05:54:07;;;;;;;1.67;1.58;;;5.10;99.90;;;;;;4934090;29;20570;-75
2023/02/20 05:56:35;;;;;;;5.55;2.00;;;5.10;99.90;;;;;;4952192;29;20780;-75
2023/02/20 05:59:04;;;;;;;2.78;2.58;;;5.10;99.90;;;;;;4953812;28;20452;-75
2023/02/20 06:01:32;;;;;;;4.45;2.45;;;5.10;99.90;;;;;;4954362;28;20053;-75
2023/02/20 06:04:00;;;;;;;3.05;2.85;;;5.00;99.90;;;;;;4933419;29;20056;-75
2023/02/20 06:06:36;;;;;;;5.13;2.67;;;5.00;99.90;;;;;;4941707;29;20051;-75
2023/02/20 06:09:06;;;;;;;2.85;2.47;;;4.90;99.90;;;;;;4934705;29;20582;-76
2023/02/20 06:11:34;;;;;;;6.90;2.22;;;5.00;99.90;;;;;;4957149;28;20066;-75
2023/02/20 06:14:03;;;;;;;2.67;2.47;;;4.90;99.90;;;;;;4948443;28;20047;-75
2023/02/20 06:16:33;;;;;;;2.63;2.33;;;4.90;99.90;;;;;;4954137;28;20554;-75
2023/02/20 06:19:01;;;;;;;3.53;3.22;;;4.90;99.90;;;;;;4934209;29;20066;-74
2023/02/20 06:21:29;;;;;;;2.08;1.88;;;4.90;99.90;;;;;;4957301;28;20054;-75
2023/02/20 06:23:56;;;;;;;2.45;2.28;;;4.90;99.90;;;;;;4951265;28;20051;-75
2023/02/20 06:26:24;;;;;;;3.95;2.50;;;4.90;99.90;;;;;;4954003;28;20066;-75
2023/02/20 06:28:53;;;;;;;2.15;2.05;;;5.00;99.90;;;;;;4950255;29;20864;-75
2023/02/20 06:31:24;;;;;;;3.30;2.15;;;5.00;99.90;;;;;;4953697;28;20058;-75
2023/02/20 06:33:53;;;;;;;4.53;2.10;;;5.00;99.90;;;;;;4933421;29;20671;-75
2023/02/20 06:36:27;;;;;;;2.20;2.10;;;5.10;99.90;;;;;;4931884;29;20054;-75
2023/02/20 06:38:55;;;;;;;2.25;1.75;;;5.10;99.90;;;;;;4947129;29;20054;-75
2023/02/20 06:41:25;;;;;;;3.05;2.85;;;5.20;99.90;;;;;;4944258;28;20574;-75
2023/02/20 06:43:53;;;;;;;12.15;2.95;;;5.20;99.90;;;;;;4951278;28;20047;-75
2023/02/20 06:46:24;;;;;;;4.18;2.38;;;5.40;99.90;;;;;;4949588;28;20043;-74
2023/02/20 06:48:54;;;;;;;6.85;3.45;;;5.40;99.90;;;;;;4945933;28;20411;-74
2023/02/20 06:51:31;;;;;;;2.67;2.57;;;5.50;99.90;;;;;;4955610;28;20058;-75
2023/02/20 06:54:01;;;;;;;3.50;2.88;;;5.50;99.90;;;;;;4931680;29;20055;-75
2023/02/20 06:56:31;;;;;;;2.10;1.90;;;5.50;99.90;;;;;;4936393;28;20365;-75
2023/02/20 06:59:00;;;;;;;3.05;2.30;;;5.50;99.90;;;;;;4953337;28;20059;-75
2023/02/20 07:01:35;;;;;;;3.22;2.95;;;5.60;99.90;;;;;;4934090;29;20043;-75
2023/02/20 07:04:03;;;;;;;2.70;1.80;;;5.60;99.90;;;;;;4948767;29;20519;-75
2023/02/20 07:06:31;;;;;;;3.22;1.88;;;5.70;99.90;;;;;;4943365;29;20059;-75
2023/02/20 07:08:59;;;;;;;2.25;2.10;;;5.80;99.90;;;;;;4948076;28;20055;-75
2023/02/20 07:11:27;;;;;;;2.67;1.63;;;5.70;99.90;;;;;;4949841;29;20067;-75
2023/02/20 07:13:57;;;;;;;8.97;2.83;;;5.70;99.90;;;;;;4948608;28;20405;-75
2023/02/20 07:16:25;;;;;;;2.78;2.35;;;5.80;99.90;;;;;;4949041;29;20055;-75
2023/02/20 07:18:53;;;;;;;2.08;1.77;;;5.90;99.90;;;;;;4947793;29;20504;-75
2023/02/20 07:21:20;;;;;;;3.72;3.13;;;5.90;99.90;;;;;;4916731;29;20039;-75
2023/02/20 07:23:48;;;;;;;3.03;2.20;;;6.00;99.90;;;;;;4947821;29;20431;-75
2023/02/20 07:26:18;;;;;;;4.90;2.38;;;6.00;99.90;;;;;;4933012;28;20128;-75
2023/02/20 07:28:46;;;;;;;7.78;4.45;;;6.00;99.90;;;;;;4953174;28;20324;-75
2023/02/20 07:31:14;;;;;;;3.20;2.97;;;6.00;99.90;;;;;;4948040;29;20051;-75
2023/02/20 07:33:42;;;;;;;4.18;2.50;;;6.00;99.90;;;;;;4948355;29;20397;-75
2023/02/20 07:36:11;;;;;;;2.63;2.42;;;6.00;99.90;;;;;;4930848;29;20074;-75
2023/02/20 07:38:39;;;;;;;2.50;2.30;;;6.00;99.90;;;;;;4930490;29;20043;-75
2023/02/20 07:41:08;;;;;;;2.20;2.03;;;6.00;99.90;;;;;;4948600;28;20036;-75
2023/02/20 07:43:35;;;;;;;3.83;2.88;;;6.00;99.90;;;;;;4927379;28;20051;-75
2023/02/20 07:46:05;;;;;;;2.45;2.25;;;6.00;99.90;;;;;;4946090;28;20044;-75
2023/02/20 07:48:33;;;;;;;3.70;3.17;;;6.00;99.90;;;;;;4932393;28;20047;-75
2023/02/20 07:51:01;;;;;;;3.70;2.38;;;6.00;99.90;;;;;;4950514;28;20492;-75
2023/02/20 07:53:28;;;;;;;3.63;2.75;;;6.00;99.90;;;;;;4934090;28;20043;-75
2023/02/20 07:55:56;;;;;;;4.63;2.33;;;6.00;99.90;;;;;;4954573;28;20050;-75
2023/02/20 07:58:24;;;;;;;5.40;2.47;;;6.10;99.90;;;;;;4932377;29;20047;-75
2023/02/20 08:00:52;;;;;;;3.78;2.22;;;6.10;99.90;;;;;;4947231;28;20431;-75
2023/02/20 08:03:20;;;;;;;2.80;1.85;;;6.10;99.90;;;;;;4954978;28;20371;-75
2023/02/20 08:05:48;;;;;;;2.72;2.53;;;6.10;99.90;;;;;;4952372;28;20047;-75
2023/02/20 08:08:24;;;;;;;3.00;2.72;;;6.20;99.90;;;;;;4947013;29;20078;-75
2023/02/20 08:10:51;;;;;;;4.85;2.05;;;6.20;99.90;;;;;;4945390;28;20078;-75
2023/02/20 08:13:34;;;;;;;3.90;2.70;;;6.30;99.90;;;;;;4930506;29;20055;-75
2023/02/20 08:16:02;;;;;;;2.88;2.78;;;6.30;99.90;;;;;;4946270;29;20590;-76
2023/02/20 08:18:32;;;;;;;3.50;2.40;;;6.30;99.90;;;;;;4953414;28;20043;-75
2023/02/20 08:21:03;;;;;;;3.50;2.13;;;6.40;99.90;;;;;;4939986;28;20614;-75
2023/02/20 08:23:31;;;;;;;4.40;2.92;;;6.40;99.90;;;;;;4946468;29;20055;-75
2023/02/20 08:26:03;;;;;;;3.97;1.88;;;6.50;99.90;;;;;;4935946;29;20051;-74
2023/02/20 08:28:31;;;;;;;3.95;2.33;;;6.60;99.90;;;;;;4936089;29;20059;-74
2023/02/20 08:30:59;;;;;;;5.65;2.75;;;6.70;99.90;;;;;;4953881;28;20055;-74
2023/02/20 08:33:26;;;;;;;8.43;2.53;;;6.70;99.90;;;;;;4936705;29;20039;-74
2023/02/20 08:35:56;;;;;;;2.08;1.88;;;6.80;99.90;;;;;;4903244;29;20059;-74
2023/02/20 08:38:25;;;;;;;4.40;2.40;;;6.80;99.90;;;;;;4935846;29;20044;-74
2023/02/20 08:40:53;;;;;;;2.97;2.78;;;6.90;99.90;;;;;;4919241;29;20039;-73
2023/02/20 08:43:21;;;;;;;3.85;2.45;;;7.00;99.90;;;;;;4955251;29;20522;-74
2023/02/20 08:45:49;;;;;;;5.53;2.47;;;7.10;99.90;;;;;;4954357;28;20058;-74
2023/02/20 08:48:17;;;;;;;4.38;2.22;;;7.20;99.90;;;;;;4954166;28;20051;-74
2023/02/20 08:50:45;;;;;;;2.38;2.17;;;7.20;99.90;;;;;;4954061;29;20039;-74
2023/02/20 08:53:15;;;;;;;2.33;1.90;;;7.20;99.90;;;;;;4954693;28;20511;-74
2023/02/20 08:55:43;;;;;;;4.25;1.83;;;7.30;99.90;;;;;;4955154;29;20051;-74
2023/02/20 08:58:10;;;;;;;3.38;3.17;;;7.50;99.90;;;;;;4937406;29;20043;-74
2023/02/20 09:00:38;;;;;;;7.35;2.10;;;7.60;99.90;;;;;;4954662;28;20051;-74
2023/02/20 09:03:07;;;;;;;3.28;1.60;;;7.60;99.90;;;;;;4954910;29;20062;-74
2023/02/20 09:05:35;;;;;;;7.60;2.33;;;7.70;99.90;;;;;;4937606;29;20062;-74
2023/02/20 09:08:05;;;;;;;3.67;2.15;;;7.80;99.90;;;;;;4969656;28;20050;-74
2023/02/20 09:10:33;;;;;;;2.45;1.55;;;7.90;99.90;;;;;;4944718;28;20056;-74
2023/02/20 09:13:01;;;;;;;5.15;2.28;;;7.80;99.90;;;;;;4935270;29;20657;-74
2023/02/20 09:15:30;;;;;;;6.38;2.20;;;7.90;99.90;;;;;;4937009;29;20066;-74
2023/02/20 09:17:58;;;;;;;3.53;1.75;;;7.90;99.90;;;;;;4921591;29;20051;-74
2023/02/20 09:20:25;;;;;;;4.13;1.98;;;8.00;99.90;;;;;;4938784;29;20052;-74
2023/02/20 09:22:57;;;;;;;2.03;1.52;;;8.00;99.90;;;;;;4934737;29;20055;-74
2023/02/20 09:25:25;;;;;;;4.43;2.03;;;8.00;99.90;;;;;;4925425;29;20073;-74
2023/02/20 09:27:53;;;;;;;5.95;2.33;;;7.90;99.90;;;;;;4938004;29;20058;-74
2023/02/20 09:30:21;;;;;;;1.88;1.33;;;7.70;99.90;;;;;;4954879;29;20039;-74
2023/02/20 09:32:49;;;;;;;1.42;1.33;;;8.40;99.90;;;;;;4954719;28;20074;-74
2023/02/20 09:35:20;;;;;;;2.28;1.90;;;9.60;99.90;;;;;;4969484;28;20031;-74
2023/02/20 09:37:49;;;;;;;3.33;1.83;;;10.60;99.90;;;;;;4962697;28;20061;-75
2023/02/20 09:40:21;;;;;;;8.02;2.83;;;10.50;99.90;;;;;;4955333;28;20043;-75
2023/02/20 09:43:01;;;;;;;4.18;2.10;;;10.10;99.90;;;;;;4973977;28;20035;-75
2023/02/20 09:45:32;;;;;;;2.88;1.98;;;10.20;99.90;;;;;;4973201;28;20043;-75
2023/02/20 09:48:28;;;;;;;6.72;1.92;;;10.50;99.90;;;;;;4972607;28;20047;-75
2023/02/20 09:51:02;;;;;;;3.05;1.75;;;10.60;99.90;;;;;;4933533;28;20186;-75
2023/02/20 09:53:29;;;;;;;3.00;1.73;;;10.40;99.90;;;;;;4961085;28;20035;-75
2023/02/20 09:56:00;;;;;;;3.50;2.33;;;10.20;99.90;;;;;;4971377;29;20053;-75
2023/02/20 09:58:58;;;;;;;2.50;1.75;;;9.90;99.90;;;;;;4971691;28;20046;-75
2023/02/20 10:01:26;;;;;;;3.08;1.80;;;9.90;99.90;;;;;;4966355;28;20043;-76
2023/02/20 10:04:10;;;;;;;3.35;1.90;;;10.00;99.90;;;;;;4977908;28;20035;-76
2023/02/20 10:06:38;;;;;;;6.97;1.80;;;10.10;99.90;;;;;;4975129;28;20045;-75
2023/02/20 10:09:11;;;;;;;2.33;2.00;;;10.20;99.90;;;;;;4929479;28;20053;-77
2023/02/20 10:12:11;;;;;;;11.23;1.92;;;10.10;99.90;;;;;;4976786;28;20055;-75
2023/02/20 10:14:51;;;;;;;2.70;2.00;;;10.10;99.90;;;;;;4977100;28;20057;-76
2023/02/20 10:17:45;;;;;;;2.20;2.00;;;10.10;99.90;;;;;;4974291;28;20049;-76
2023/02/20 10:20:23;;;;;;;2.15;1.33;;;10.30;99.90;;;;;;4978284;28;20045;-75
2023/02/20 10:23:01;;;;;;;1.40;1.30;;;10.40;99.90;;;;;;4976414;28;20053;-75
2023/02/20 10:25:42;;;;;;;3.67;2.13;;;10.40;99.90;;;;;;4960130;28;20039;-75
2023/02/20 10:28:16;;;;;;;4.30;2.22;;;10.50;99.90;;;;;;4959206;28;20049;-75
2023/02/20 10:31:10;;;;;;;1.80;1.67;;;10.40;99.90;;;;;;4977538;28;21070;-75
2023/02/20 10:34:07;;;;;;;3.03;1.63;;;10.30;99.90;;;;;;4949968;28;20042;-75
2023/02/20 10:36:55;;;;;;;4.07;1.85;;;10.60;99.90;;;;;;4942949;28;20039;-75
2023/02/20 10:39:24;;;;;;;1.70;1.60;;;10.70;99.90;;;;;;4945713;28;20059;-75
2023/02/20 10:42:14;;;;;;;2.53;2.25;;;10.80;99.90;;;;;;4932028;29;20423;-75
2023/02/20 10:44:56;;;;;;;3.60;3.17;;;10.40;99.90;;;;;;4948279;28;20352;-75
2023/02/20 10:47:28;;;;;;;;;;;10.40;99.90;;;;;;4942235;29;20046;-75
2023/02/20 10:50:08;;;;;;;5.55;2.08;;;10.50;99.90;;;;;;4931654;29;19941;-75
2023/02/20 10:52:46;;;;;;;3.22;2.83;;;10.30;99.90;;;;;;4952834;28;20055;-75
2023/02/20 10:55:44;;;;;;;2.08;1.23;;;10.40;99.90;;;;;;4930206;29;20058;-75
2023/02/20 10:58:17;;;;;;;3.88;2.33;;;10.50;99.90;;;;;;4931873;29;20043;-75
2023/02/20 11:00:53;;;;;;;1.98;1.85;;;10.60;99.90;;;;;;4915509;28;20416;-75
2023/02/20 11:03:24;;;;;;;1.88;1.23;;;10.70;99.90;;;;;;4949133;29;20051;-75
2023/02/20 11:05:54;;;;;;;;;;;10.90;99.90;;;;;;4930322;29;20047;-75
2023/02/20 11:08:23;;;;;;;2.42;2.22;;;11.00;99.90;;;;;;4945598;29;19937;-74
2023/02/20 11:11:18;;;;;;;1.77;1.67;;;11.00;99.90;;;;;;4930943;29;20059;-75
2023/02/20 11:13:45;;;;;;;1.30;1.20;;;11.00;99.90;;;;;;4932936;29;20393;-75
2023/02/20 11:16:47;;;;;;;2.95;1.98;;;11.20;99.90;;;;;;4949079;29;20086;-75
2023/02/20 11:19:21;;;;;;;2.40;2.15;;;11.40;99.90;;;;;;4893946;29;20745;-75
2023/02/20 11:21:51;;;;;;;2.17;1.60;;;11.70;99.90;;;;;;4948783;29;20058;-74
2023/02/20 11:24:33;;;;;;;15.32;2.55;;;11.80;99.90;;;;;;4931536;29;20055;-74
2023/02/20 11:27:19;;;;;;;3.45;1.45;;;11.90;99.90;;;;;;4924584;29;20051;-75
2023/02/20 11:29:52;;;;;;;3.58;1.63;;;11.90;99.90;;;;;;4949044;29;20535;-75
2023/02/20 11:32:27;;;;;;;0.82;0.82;;;11.90;99.90;;;;;;4946991;29;20043;-75
2023/02/20 11:35:04;;;;;;;4.72;1.60;;;12.20;99.90;;;;;;4945316;28;20400;-75
2023/02/20 11:37:33;;;;;;;1.75;1.10;;;12.10;99.90;;;;;;4922234;29;20757;-75
2023/02/20 11:40:29;;;;;;;1.63;1.48;;;12.10;99.90;;;;;;4951495;28;20054;-75
2023/02/20 11:43:12;;;;;;;2.13;1.65;;;11.90;99.90;;;;;;4928832;29;20411;-75
2023/02/20 11:45:40;;;;;;;1.75;1.38;;;11.90;99.90;;;;;;4951337;28;20038;-75
2023/02/20 11:48:19;;;;;;;5.10;1.65;;;12.20;99.90;;;;;;4949246;28;20491;-75
2023/02/20 11:50:48;;;;;;;1.63;1.20;;;12.50;99.90;;;;;;4926814;29;20047;-75
2023/02/20 11:53:31;;;;;;;1.83;1.42;;;12.80;99.90;;;;;;4950555;28;20392;-74
2023/02/20 11:56:20;;;;;;;2.45;2.15;;;12.40;99.90;;;;;;4941800;28;20058;-75
2023/02/20 11:58:48;;;;;;;2.53;1.45;;;12.40;99.90;;;;;;4931766;29;20062;-75
2023/02/20 12:01:32;;;;;;;1.70;1.25;;;12.70;99.90;;;;;;4952898;28;20047;-75
2023/02/20 12:04:00;;;;;;;1.52;1.42;;;12.50;99.90;;;;;;4953484;28;20431;-75
2023/02/20 12:06:31;;;;;;;3.35;1.65;;;12.30;99.90;;;;;;4947480;28;20047;-75
2023/02/20 12:09:06;;;;;;;2.22;1.10;;;12.10;99.90;;;;;;4930941;28;20699;-75
2023/02/20 12:11:33;;;;;;;1.95;1.77;;;12.10;99.90;;;;;;4949698;28;20051;-75
2023/02/20 12:14:01;;;;;;;1.58;1.05;;;12.30;99.90;;;;;;4931844;29;20951;-74
2023/02/20 12:16:53;;;;;;;6.47;1.80;;;12.30;99.90;;;;;;4947595;29;20055;-75
2023/02/20 12:19:33;;;;;;;2.28;1.15;;;12.40;99.90;;;;;;4927947;29;20055;-74
2023/02/20 12:22:08;;;;;;;2.60;1.17;;;12.70;99.90;;;;;;4947346;28;20055;-75
2023/02/20 12:25:08;;;;;;;2.33;1.48;;;13.00;99.90;;;;;;4945458;28;20451;-75
2023/02/20 12:28:05;;;;;;;2.30;2.10;;;13.10;99.90;;;;;;4945026;29;20048;-75
2023/02/20 12:31:07;;;;;;;2.50;1.33;;;13.10;98.60;;;;;;4928936;29;20421;-75
2023/02/20 12:33:42;;;;;;;1.17;1.08;;;13.50;99.90;;;;;;4947189;28;20051;-75
2023/02/20 12:36:35;;;;;;;1.30;1.02;;;13.30;99.80;;;;;;4947308;28;20066;-74
2023/02/20 12:39:41;;;;;;;1.70;1.60;;;13.10;99.70;;;;;;4912042;29;20055;-74
2023/02/20 12:42:17;;;;;;;4.35;1.45;;;13.20;99.90;;;;;;4937301;28;20195;-75
2023/02/20 12:45:09;;;;;;;1.35;1.25;;;13.40;99.30;;;;;;4943753;28;20055;-74
2023/02/20 12:47:41;;;;;;;1.13;0.82;;;13.80;99.90;;;;;;4946675;29;20058;-74
2023/02/20 12:50:30;;;;;;;0.88;0.80;;;13.70;97.90;;;;;;4942006;29;20413;-74
2023/02/20 12:53:10;;;;;;;1.58;1.50;;;13.60;98.40;;;;;;4932424;28;20057;-75
2023/02/20 12:56:26;;;;;;;0.97;0.80;;;13.60;97.00;;;;;;4926298;29;20043;-75
2023/02/20 12:59:00;;;;;;;3.80;1.27;;;13.70;96.90;;;;;;4932132;29;20313;-75
2023/02/20 13:01:27;;;;;;;1.10;1.00;;;13.60;96.90;;;;;;4947149;28;20069;-75
2023/02/20 13:04:22;;;;;;;0.82;0.82;;;13.50;98.60;;;;;;4929730;29;20055;-75
2023/02/20 13:07:02;;;;;;;1.20;1.10;;;13.60;96.80;;;;;;4952143;28;20039;-74
2023/02/20 13:09:40;;;;;;;1.73;1.02;;;13.60;94.50;;;;;;4940908;28;20062;-75
2023/02/20 13:12:15;;;;;;;1.92;1.10;;;13.70;95.90;;;;;;4952660;28;20055;-75
2023/02/20 13:14:57;;;;;;;4.53;1.67;;;13.50;95.90;;;;;;4946711;29;20055;-74
2023/02/20 13:17:37;;;;;;;1.23;0.90;;;13.70;95.00;;;;;;4945151;28;20054;-74
2023/02/20 13:20:24;;;;;;;1.88;1.25;;;13.60;95.50;;;;;;4935520;29;20055;-74
2023/02/20 13:23:17;;;;;;;1.60;0.93;;;13.70;94.30;;;;;;4943179;29;20101;-75
2023/02/20 13:25:47;;;;;;;1.33;0.93;;;13.70;95.10;;;;;;4942939;28;20447;-74
2023/02/20 13:28:26;;;;;;;3.28;1.10;;;13.90;96.10;;;;;;4950953;28;20050;-75
2023/02/20 13:31:10;;;;;;;1.20;1.10;;;13.80;94.60;;;;;;4945601;29;20047;-75
2023/02/20 13:33:43;;;;;;;1.52;0.90;;;13.80;94.70;;;;;;4929091;29;20039;-74
2023/02/20 13:36:34;;;;;;;1.08;1.02;;;13.90;94.10;;;;;;4949187;29;20051;-75
2023/02/20 13:39:20;;;;;;;1.58;1.02;;;14.00;94.60;;;;;;4903164;29;20047;-74
2023/02/20 13:41:54;;;;;;;1.55;1.08;;;13.80;95.40;;;;;;4946164;28;20047;-75
2023/02/20 13:44:28;;;;;;;1.20;1.10;;;13.90;94.10;;;;;;4934660;29;20055;-75
2023/02/20 13:47:04;;;;;;;3.20;1.38;;;13.90;94.70;;;;;;4929512;29;20047;-75
2023/02/20 13:49:51;;;;;;;1.17;1.02;;;13.90;94.30;;;;;;4954867;28;20042;-75